Time;durP1;ratioP1;P1;durP2;ratioP2;P2;SDS_P1;SDS_P2;PMS_P1;PMS_P2;Temp;Humidity;BMP_temperature;BMP_pressure;BME280_temperature;BME280_humidity;BME280_pressure;Samples;Min_cycle;Max_cycle;Signal;HPM_P1;HPM_P2
2022/10/08 00:02:21;;;;;;;12.43;11.20;;;17.40;99.90;;;;;;5095334;28;20169;-74
2022/10/08 00:04:47;;;;;;;10.80;9.70;;;17.40;99.90;;;;;;5094984;28;20222;-73
2022/10/08 00:07:12;;;;;;;11.50;9.53;;;17.40;99.90;;;;;;5095276;28;20169;-73
2022/10/08 00:09:38;;;;;;;10.97;9.87;;;17.30;99.90;;;;;;5093183;28;20180;-73
2022/10/08 00:12:03;;;;;;;9.87;8.87;;;17.20;99.90;;;;;;5076728;28;20659;-73
2022/10/08 00:14:29;;;;;;;12.27;11.17;;;17.20;99.90;;;;;;5093531;28;20224;-73
2022/10/08 00:16:54;;;;;;;10.83;9.70;;;17.20;99.90;;;;;;5076126;28;20195;-72
2022/10/08 00:19:20;;;;;;;15.10;9.23;;;17.10;99.90;;;;;;5093250;28;20245;-73
2022/10/08 00:21:46;;;;;;;15.23;11.57;;;17.10;99.90;;;;;;5094725;28;20172;-73
2022/10/08 00:24:15;;;;;;;11.03;10.00;;;17.00;99.90;;;;;;5094637;28;20182;-73
2022/10/08 00:26:41;;;;;;;12.00;10.80;;;16.90;99.90;;;;;;5076575;28;20421;-73
2022/10/08 00:29:08;;;;;;;11.50;9.47;;;16.70;99.90;;;;;;5094643;28;20407;-72
2022/10/08 00:31:37;;;;;;;11.57;9.93;;;16.70;99.90;;;;;;5094596;28;20858;-73
2022/10/08 00:34:06;;;;;;;10.60;9.53;;;16.60;99.90;;;;;;5094721;28;20577;-73
2022/10/08 00:36:35;;;;;;;13.10;9.33;;;16.50;99.90;;;;;;5094207;28;20408;-73
2022/10/08 00:39:07;;;;;;;13.23;11.07;;;16.50;99.90;;;;;;5093822;28;20912;-72
2022/10/08 00:41:37;;;;;;;13.90;9.50;;;16.50;99.90;;;;;;5054120;28;20385;-74
2022/10/08 00:44:21;;;;;;;11.03;9.93;;;16.50;99.90;;;;;;5054165;28;20802;-73
2022/10/08 00:46:49;;;;;;;9.60;8.77;;;16.40;99.90;;;;;;5054432;28;20388;-73
2022/10/08 00:49:18;;;;;;;12.27;10.97;;;16.40;99.90;;;;;;5054108;28;20961;-74
2022/10/08 00:51:55;;;;;;;11.73;10.50;;;16.30;99.90;;;;;;5053683;28;20449;-73
2022/10/08 00:54:22;;;;;;;11.13;9.90;;;16.30;99.90;;;;;;5067656;28;20430;-73
2022/10/08 00:56:53;;;;;;;10.40;9.40;;;16.20;99.90;;;;;;5093939;28;20410;-73
2022/10/08 00:59:19;;;;;;;14.80;10.97;;;16.10;99.90;;;;;;5073607;28;20451;-73
2022/10/08 01:01:45;;;;;;;12.20;10.77;;;16.10;99.90;;;;;;5092841;28;20401;-73
2022/10/08 01:04:13;;;;;;;10.53;9.43;;;16.00;99.90;;;;;;5075922;28;20970;-72
2022/10/08 01:06:50;;;;;;;12.93;11.17;;;16.10;99.90;;;;;;5093902;28;20416;-72
2022/10/08 01:09:40;;;;;;;9.43;8.53;;;16.10;99.90;;;;;;5094300;28;20424;-72
2022/10/08 01:12:22;;;;;;;10.90;9.80;;;16.10;99.90;;;;;;5093040;28;20465;-72
2022/10/08 01:15:10;;;;;;;12.20;10.80;;;16.20;99.90;;;;;;5093580;28;20384;-72
2022/10/08 01:17:59;;;;;;;12.27;11.00;;;16.10;99.90;;;;;;5092085;28;20435;-73
2022/10/08 01:20:40;;;;;;;11.90;10.47;;;16.10;99.90;;;;;;5093827;28;20406;-72
2022/10/08 01:23:12;;;;;;;10.63;9.40;;;16.10;99.90;;;;;;5092317;28;20451;-73
2022/10/08 01:25:55;;;;;;;10.83;8.37;;;16.20;99.90;;;;;;5093132;28;20771;-73
2022/10/08 01:28:42;;;;;;;11.30;8.60;;;16.30;99.90;;;;;;5092765;28;20437;-73
2022/10/08 01:31:17;;;;;;;11.27;9.27;;;16.30;99.90;;;;;;5093830;28;20809;-73
2022/10/08 01:34:04;;;;;;;10.27;9.27;;;16.40;99.90;;;;;;5093513;28;20490;-74
2022/10/08 01:36:35;;;;;;;11.83;10.60;;;16.40;99.90;;;;;;5094517;28;20860;-74
2022/10/08 01:39:05;;;;;;;9.83;8.83;;;16.30;99.90;;;;;;5093626;28;20392;-73
2022/10/08 01:41:32;;;;;;;11.87;10.10;;;16.40;99.90;;;;;;5093952;28;20757;-72
2022/10/08 01:44:11;;;;;;;9.90;8.90;;;16.40;99.90;;;;;;5091962;28;20438;-73
2022/10/08 01:46:39;;;;;;;10.50;9.40;;;16.40;99.90;;;;;;5093085;28;20527;-73
2022/10/08 01:49:10;;;;;;;9.53;8.63;;;16.50;99.90;;;;;;5093284;28;20418;-73
2022/10/08 01:51:41;;;;;;;13.50;9.83;;;16.40;99.90;;;;;;5093543;28;20790;-74
2022/10/08 01:54:11;;;;;;;9.90;8.60;;;16.30;99.90;;;;;;5091560;28;20438;-73
2022/10/08 01:56:38;;;;;;;10.90;9.80;;;16.30;99.90;;;;;;5092920;28;20406;-73
2022/10/08 01:59:10;;;;;;;8.63;7.73;;;16.30;99.90;;;;;;5093516;28;20521;-73
2022/10/08 02:02:06;;;;;;;10.93;8.73;;;16.30;99.90;;;;;;5092371;28;20938;-73
2022/10/08 02:04:32;;;;;;;10.80;9.70;;;16.30;99.90;;;;;;5093136;28;20462;-72
2022/10/08 02:07:07;;;;;;;10.70;8.43;;;16.20;99.90;;;;;;5091242;28;20919;-72
2022/10/08 02:09:36;;;;;;;11.17;9.40;;;16.10;99.90;;;;;;5093226;28;20203;-72
2022/10/08 02:12:03;;;;;;;10.63;9.53;;;16.10;99.90;;;;;;5093082;28;20445;-73
2022/10/08 02:14:30;;;;;;;10.40;8.70;;;16.20;99.90;;;;;;5095320;28;21033;-72
2022/10/08 02:17:34;;;;;;;11.27;9.87;;;16.20;99.90;;;;;;5097469;28;20399;-72
2022/10/08 02:20:19;;;;;;;9.47;8.67;;;16.30;99.90;;;;;;5097110;28;20774;-73
2022/10/08 02:23:08;;;;;;;10.43;9.27;;;16.40;99.90;;;;;;5097262;28;20430;-72
2022/10/08 02:25:56;;;;;;;11.73;10.73;;;16.50;99.90;;;;;;5095269;28;20398;-72
2022/10/08 02:28:36;;;;;;;9.40;8.43;;;16.40;99.90;;;;;;5065944;28;20411;-72
2022/10/08 02:31:16;;;;;;;11.90;10.80;;;16.50;99.90;;;;;;5056378;28;20463;-72
2022/10/08 02:33:49;;;;;;;10.40;9.50;;;16.40;99.90;;;;;;5056426;28;20460;-72
2022/10/08 02:36:21;;;;;;;11.60;10.50;;;16.40;99.90;;;;;;5056840;28;20771;-72
2022/10/08 02:38:56;;;;;;;11.60;10.17;;;16.40;99.90;;;;;;5057044;28;20483;-72
2022/10/08 02:41:28;;;;;;;10.23;9.13;;;16.30;99.90;;;;;;5038349;28;20899;-73
2022/10/08 02:43:56;;;;;;;10.87;9.87;;;16.30;99.90;;;;;;5064514;28;20484;-71
2022/10/08 02:46:26;;;;;;;12.43;11.23;;;16.30;99.90;;;;;;5096721;28;20401;-72
2022/10/08 02:49:01;;;;;;;9.23;8.30;;;16.30;99.90;;;;;;5096373;28;20528;-72
2022/10/08 02:51:29;;;;;;;12.50;10.90;;;16.30;99.90;;;;;;5096646;28;20443;-72
2022/10/08 02:53:56;;;;;;;10.90;9.80;;;16.10;99.90;;;;;;5095597;28;20783;-72
2022/10/08 02:56:31;;;;;;;14.60;13.30;;;16.10;99.90;;;;;;5058234;28;20435;-73
2022/10/08 02:58:57;;;;;;;19.53;14.10;;;16.20;99.90;;;;;;5076034;28;20410;-73
2022/10/08 03:01:35;;;;;;;17.40;14.20;;;16.20;99.90;;;;;;5075862;28;20411;-73
2022/10/08 03:04:14;;;;;;;19.60;17.50;;;16.20;99.90;;;;;;5076249;28;20193;-73
2022/10/08 03:06:40;;;;;;;15.83;14.33;;;16.20;99.90;;;;;;5076182;28;20465;-72
2022/10/08 03:09:09;;;;;;;16.23;14.40;;;16.30;99.90;;;;;;5079234;28;20429;-71
2022/10/08 03:11:35;;;;;;;15.60;14.00;;;16.20;99.90;;;;;;5096140;28;20950;-72
2022/10/08 03:14:08;;;;;;;12.73;11.43;;;16.20;99.90;;;;;;5095843;28;20425;-72
2022/10/08 03:16:42;;;;;;;12.33;11.30;;;16.10;99.90;;;;;;5094697;28;20230;-72
2022/10/08 03:19:10;;;;;;;13.77;12.57;;;16.00;99.90;;;;;;5095685;28;20401;-73
2022/10/08 03:21:38;;;;;;;15.93;14.27;;;15.90;99.90;;;;;;5096206;28;20422;-73
2022/10/08 03:24:08;;;;;;;15.17;13.33;;;16.00;99.90;;;;;;5095280;28;20524;-73
2022/10/08 03:26:34;;;;;;;12.17;11.07;;;16.10;99.90;;;;;;5095904;28;20406;-73
2022/10/08 03:29:00;;;;;;;12.70;11.33;;;16.30;99.90;;;;;;5094095;28;20436;-72
2022/10/08 03:31:25;;;;;;;12.37;10.50;;;16.20;99.90;;;;;;5095660;28;20811;-72
2022/10/08 03:33:52;;;;;;;11.77;10.57;;;16.20;99.90;;;;;;5095791;28;20230;-72
2022/10/08 03:36:19;;;;;;;12.20;10.90;;;16.30;99.90;;;;;;5095941;28;20167;-73
2022/10/08 03:38:45;;;;;;;12.83;11.43;;;16.30;99.90;;;;;;5095675;28;20407;-73
2022/10/08 03:41:11;;;;;;;11.83;10.67;;;16.20;99.90;;;;;;5096099;28;20442;-74
2022/10/08 03:43:37;;;;;;;10.37;9.30;;;16.30;99.90;;;;;;5095634;28;20204;-73
2022/10/08 03:46:03;;;;;;;11.97;10.83;;;16.30;99.90;;;;;;5095243;28;20179;-73
2022/10/08 03:48:29;;;;;;;10.73;9.60;;;16.40;99.90;;;;;;5095751;28;20411;-74
2022/10/08 03:51:07;;;;;;;11.43;10.43;;;16.40;99.90;;;;;;5095336;28;20447;-73
2022/10/08 03:53:35;;;;;;;10.90;9.90;;;16.40;99.90;;;;;;5095665;28;20431;-74
2022/10/08 03:56:02;;;;;;;11.17;10.17;;;16.50;99.90;;;;;;5093513;28;20526;-73
2022/10/08 03:58:29;;;;;;;8.97;8.20;;;16.50;99.90;;;;;;5095309;28;20406;-72
2022/10/08 04:00:59;;;;;;;12.03;10.77;;;16.60;99.90;;;;;;5095221;28;20452;-73
2022/10/08 04:03:25;;;;;;;9.60;8.80;;;16.60;99.90;;;;;;5095175;28;20442;-74
2022/10/08 04:05:51;;;;;;;10.07;9.10;;;16.70;99.90;;;;;;5093660;28;20462;-73
2022/10/08 04:08:17;;;;;;;10.10;8.90;;;16.80;99.90;;;;;;5094957;28;20442;-73
2022/10/08 04:10:42;;;;;;;11.27;9.87;;;16.80;99.90;;;;;;5094963;28;20630;-73
2022/10/08 04:13:08;;;;;;;10.70;9.70;;;16.80;99.90;;;;;;5095053;28;20732;-73
2022/10/08 04:15:33;;;;;;;11.23;10.20;;;16.70;99.90;;;;;;5093068;28;20199;-74
2022/10/08 04:17:59;;;;;;;10.80;9.70;;;16.70;99.90;;;;;;5094861;28;20173;-73
2022/10/08 04:20:24;;;;;;;11.27;8.60;;;16.50;99.90;;;;;;5094871;28;20538;-72
2022/10/08 04:22:50;;;;;;;12.87;11.30;;;16.60;99.90;;;;;;5095108;28;20651;-73
2022/10/08 04:25:16;;;;;;;10.70;8.80;;;16.50;99.90;;;;;;5094713;28;21019;-73
2022/10/08 04:27:42;;;;;;;9.87;7.87;;;16.60;99.90;;;;;;5094746;28;20643;-72
2022/10/08 04:30:08;;;;;;;10.43;8.80;;;16.60;99.90;;;;;;5094247;28;20483;-72
2022/10/08 04:32:33;;;;;;;9.00;7.90;;;16.60;99.90;;;;;;5094333;28;20189;-73
2022/10/08 04:34:59;;;;;;;11.80;8.53;;;16.60;99.90;;;;;;5093850;28;20410;-73
2022/10/08 04:37:25;;;;;;;9.27;8.23;;;16.60;99.90;;;;;;5094522;28;20175;-72
2022/10/08 04:39:50;;;;;;;10.00;8.10;;;16.60;99.90;;;;;;5094232;28;20539;-73
2022/10/08 04:42:16;;;;;;;8.87;7.97;;;16.60;99.90;;;;;;5094516;28;20541;-72
2022/10/08 04:44:41;;;;;;;14.63;10.20;;;16.60;99.90;;;;;;5075456;28;20212;-73
2022/10/08 04:47:07;;;;;;;13.63;11.37;;;16.50;99.90;;;;;;5094655;28;20165;-71
2022/10/08 04:49:32;;;;;;;10.17;9.27;;;16.60;99.90;;;;;;5094420;28;20239;-73
2022/10/08 04:51:58;;;;;;;22.60;17.57;;;16.60;99.90;;;;;;5094150;28;20231;-74
2022/10/08 04:54:23;;;;;;;9.27;8.37;;;16.60;99.90;;;;;;5092553;28;20198;-73
2022/10/08 04:56:49;;;;;;;10.00;9.10;;;16.60;99.90;;;;;;5093975;28;20228;-72
2022/10/08 04:59:14;;;;;;;9.53;8.20;;;16.70;99.90;;;;;;5091451;28;20649;-73
2022/10/08 05:01:40;;;;;;;9.47;8.67;;;16.80;99.90;;;;;;5073704;28;20631;-73
2022/10/08 05:04:06;;;;;;;9.53;8.63;;;16.70;99.90;;;;;;5073710;28;20200;-72
2022/10/08 05:06:31;;;;;;;10.47;8.33;;;16.70;99.90;;;;;;5073526;28;20185;-74
2022/10/08 05:09:01;;;;;;;9.47;7.80;;;16.60;99.90;;;;;;5073747;28;20177;-71
2022/10/08 05:11:27;;;;;;;11.30;8.57;;;16.50;99.90;;;;;;5072864;28;20563;-73
2022/10/08 05:13:54;;;;;;;9.37;8.43;;;16.50;99.90;;;;;;5073500;28;20435;-73
2022/10/08 05:16:20;;;;;;;10.70;8.30;;;16.60;99.90;;;;;;5075175;28;20650;-73
2022/10/08 05:18:47;;;;;;;10.80;8.60;;;16.60;99.90;;;;;;5085979;28;20492;-73
2022/10/08 05:21:18;;;;;;;8.90;8.00;;;16.60;99.90;;;;;;5064635;28;20445;-72
2022/10/08 05:23:44;;;;;;;11.90;9.43;;;16.60;99.90;;;;;;5073836;28;20423;-73
2022/10/08 05:26:18;;;;;;;12.33;10.20;;;16.50;99.90;;;;;;5073295;28;20406;-73
2022/10/08 05:28:48;;;;;;;12.13;9.87;;;16.40;99.90;;;;;;5073722;28;20439;-73
2022/10/08 05:31:15;;;;;;;13.20;9.20;;;16.40;99.90;;;;;;5073388;28;20447;-74
2022/10/08 05:33:41;;;;;;;10.93;9.93;;;16.40;99.90;;;;;;5105203;22;20539;-71
2022/10/08 05:36:09;;;;;;;16.07;10.80;;;16.40;99.90;;;;;;5093773;28;20878;-70
2022/10/08 05:38:35;;;;;;;12.53;8.77;;;16.40;99.90;;;;;;5092966;28;20236;-73
2022/10/08 05:41:16;;;;;;;12.00;9.77;;;16.40;99.90;;;;;;5091916;28;20434;-71
2022/10/08 05:43:42;;;;;;;8.60;7.77;;;16.30;99.90;;;;;;5092806;28;20196;-71
2022/10/08 05:46:08;;;;;;;12.23;9.63;;;16.10;99.90;;;;;;5092399;28;20780;-72
2022/10/08 05:48:34;;;;;;;8.70;7.80;;;16.20;99.90;;;;;;5093029;28;20170;-71
2022/10/08 05:51:18;;;;;;;10.50;9.50;;;16.10;99.90;;;;;;5093011;28;20199;-71
2022/10/08 05:53:46;;;;;;;11.73;9.90;;;16.10;99.90;;;;;;5093045;28;20468;-71
2022/10/08 05:56:13;;;;;;;12.60;9.70;;;16.10;99.90;;;;;;5091405;28;20480;-72
2022/10/08 05:58:39;;;;;;;11.17;9.77;;;16.00;99.90;;;;;;5092540;28;20403;-71
2022/10/08 06:01:12;;;;;;;14.30;10.43;;;15.90;99.90;;;;;;5093207;28;20404;-71
2022/10/08 06:03:38;;;;;;;13.20;9.67;;;15.90;99.90;;;;;;5093006;28;20433;-71
2022/10/08 06:06:09;;;;;;;14.10;9.40;;;15.90;99.90;;;;;;5092535;28;20406;-71
2022/10/08 06:08:36;;;;;;;15.13;9.27;;;15.80;99.90;;;;;;5092720;28;20170;-72
2022/10/08 06:11:02;;;;;;;12.57;11.13;;;15.90;99.90;;;;;;5092632;28;20445;-71
2022/10/08 06:13:28;;;;;;;14.90;10.80;;;15.80;99.90;;;;;;5092044;28;20471;-71
2022/10/08 06:16:02;;;;;;;11.37;10.30;;;15.70;99.90;;;;;;5092900;28;20402;-71
2022/10/08 06:18:31;;;;;;;11.50;10.00;;;15.80;99.90;;;;;;5092900;28;20538;-71
2022/10/08 06:21:01;;;;;;;13.83;9.90;;;15.90;99.90;;;;;;5057888;28;20456;-72
2022/10/08 06:23:27;;;;;;;13.87;9.57;;;15.80;99.90;;;;;;5092190;28;20432;-72
2022/10/08 06:25:52;;;;;;;10.80;7.93;;;15.70;99.90;;;;;;5092516;28;20415;-73
2022/10/08 06:28:18;;;;;;;14.07;9.10;;;15.70;99.90;;;;;;5091382;28;20178;-72
2022/10/08 06:30:43;;;;;;;11.27;10.03;;;15.80;99.90;;;;;;5092372;28;20287;-72
2022/10/08 06:33:09;;;;;;;10.83;9.73;;;15.70;99.90;;;;;;5092363;28;20198;-71
2022/10/08 06:35:36;;;;;;;11.33;9.83;;;15.80;99.90;;;;;;5093101;28;20155;-72
2022/10/08 06:38:02;;;;;;;10.40;8.13;;;15.90;99.90;;;;;;5092466;28;20408;-72
2022/10/08 06:40:37;;;;;;;13.30;9.23;;;15.90;99.90;;;;;;5092964;28;20410;-72
2022/10/08 06:43:06;;;;;;;10.40;9.33;;;15.90;99.90;;;;;;5075104;28;20517;-70
2022/10/08 06:45:39;;;;;;;10.00;9.17;;;16.00;99.90;;;;;;5092778;28;20401;-73
2022/10/08 06:48:05;;;;;;;8.33;7.43;;;16.00;99.90;;;;;;5074851;28;20386;-70
2022/10/08 06:50:31;;;;;;;11.87;8.80;;;16.00;99.90;;;;;;5092540;28;20731;-70
2022/10/08 06:52:57;;;;;;;9.57;8.03;;;16.00;99.90;;;;;;5093621;28;22505;-72
2022/10/08 06:55:22;;;;;;;11.30;7.87;;;16.10;99.90;;;;;;5093673;28;20507;-71
2022/10/08 06:57:48;;;;;;;8.37;7.47;;;16.20;99.90;;;;;;5070828;28;20227;-71
2022/10/08 07:00:14;;;;;;;11.23;7.23;;;16.30;99.90;;;;;;5097148;28;20254;-71
2022/10/08 07:02:39;;;;;;;7.80;7.10;;;16.30;99.90;;;;;;5097383;28;20241;-73
2022/10/08 07:05:05;;;;;;;9.90;7.37;;;16.40;99.90;;;;;;5097463;28;20179;-71
2022/10/08 07:07:31;;;;;;;9.47;7.50;;;16.40;99.90;;;;;;5096569;28;20205;-71
2022/10/08 07:09:56;;;;;;;7.80;6.53;;;16.50;99.90;;;;;;5096096;28;20396;-71
2022/10/08 07:12:22;;;;;;;10.03;9.03;;;16.50;99.90;;;;;;5077314;28;20196;-72
2022/10/08 07:14:48;;;;;;;9.90;6.97;;;16.50;99.90;;;;;;5095432;28;20233;-71
2022/10/08 07:17:13;;;;;;;8.93;8.03;;;16.50;99.90;;;;;;5077360;28;20179;-71
2022/10/08 07:19:39;;;;;;;15.47;12.17;;;16.30;99.90;;;;;;5095543;28;20163;-71
2022/10/08 07:22:04;;;;;;;12.50;9.03;;;16.50;99.90;;;;;;5095776;28;20169;-71
2022/10/08 07:24:30;;;;;;;9.60;7.17;;;16.60;99.90;;;;;;5096123;28;20213;-72
2022/10/08 07:26:55;;;;;;;10.50;6.60;;;16.70;99.90;;;;;;5095714;28;20255;-72
2022/10/08 07:29:23;;;;;;;9.00;7.43;;;16.70;99.90;;;;;;5096480;28;20168;-72
2022/10/08 07:31:49;;;;;;;12.33;7.70;;;16.80;99.90;;;;;;5095835;28;20647;-72
2022/10/08 07:34:14;;;;;;;10.07;6.50;;;17.00;99.90;;;;;;5096113;28;20439;-72
2022/10/08 07:36:40;;;;;;;8.53;5.20;;;16.60;99.90;;;;;;5097090;28;20168;-71
2022/10/08 07:39:10;;;;;;;7.50;6.03;;;16.60;99.90;;;;;;5097645;28;20191;-71
2022/10/08 07:41:36;;;;;;;6.90;6.00;;;16.50;99.90;;;;;;5095983;28;20176;-71
2022/10/08 07:44:02;;;;;;;8.50;5.40;;;16.40;99.90;;;;;;5097920;28;20803;-72
2022/10/08 07:46:29;;;;;;;8.20;7.50;;;16.60;99.90;;;;;;5103965;28;20170;-71
2022/10/08 07:48:57;;;;;;;9.23;8.17;;;16.80;99.90;;;;;;5112679;28;20399;-72
2022/10/08 07:51:24;;;;;;;7.50;5.70;;;16.80;99.90;;;;;;5108246;28;20454;-72
2022/10/08 07:53:50;;;;;;;6.57;5.50;;;16.80;99.90;;;;;;5101208;28;20427;-73
2022/10/08 07:56:17;;;;;;;7.03;5.33;;;16.80;99.90;;;;;;5094185;28;20421;-73
2022/10/08 07:58:43;;;;;;;5.40;4.90;;;16.70;99.90;;;;;;5094749;28;20161;-73
2022/10/08 08:01:14;;;;;;;8.67;4.83;;;16.80;99.90;;;;;;5094850;28;20460;-72
2022/10/08 08:03:40;;;;;;;7.50;5.17;;;16.80;99.90;;;;;;5094598;28;20489;-71
2022/10/08 08:06:15;;;;;;;7.00;4.93;;;17.00;99.90;;;;;;5094908;28;20418;-73
2022/10/08 08:08:42;;;;;;;7.87;5.40;;;17.20;99.90;;;;;;5094630;28;20395;-72
2022/10/08 08:11:10;;;;;;;5.63;4.70;;;17.40;99.90;;;;;;5075010;28;20450;-74
2022/10/08 08:13:38;;;;;;;11.83;4.83;;;17.50;99.90;;;;;;5086245;28;20432;-72
2022/10/08 08:16:15;;;;;;;6.97;4.90;;;17.40;99.90;;;;;;5074277;28;20415;-72
2022/10/08 08:18:43;;;;;;;9.60;5.37;;;17.50;99.90;;;;;;5094316;28;20421;-72
2022/10/08 08:21:17;;;;;;;6.30;5.50;;;17.50;99.90;;;;;;5094386;28;20421;-72
2022/10/08 08:23:48;;;;;;;8.10;5.30;;;17.40;99.90;;;;;;5094413;28;20451;-72
2022/10/08 08:26:24;;;;;;;5.83;4.97;;;17.50;99.90;;;;;;5095030;28;20474;-71
2022/10/08 08:28:52;;;;;;;14.20;9.70;;;17.40;99.90;;;;;;5094261;28;20781;-72
2022/10/08 08:31:32;;;;;;;12.63;4.87;;;17.50;99.90;;;;;;5094245;28;20848;-72
2022/10/08 08:34:07;;;;;;;8.20;3.70;;;17.50;99.90;;;;;;5094308;28;20451;-73
2022/10/08 08:36:36;;;;;;;5.63;3.33;;;17.10;99.90;;;;;;5094053;28;20437;-72
2022/10/08 08:39:02;;;;;;;7.10;3.40;;;17.00;99.90;;;;;;5076242;28;20395;-70
2022/10/08 08:41:49;;;;;;;7.00;3.83;;;17.00;99.90;;;;;;5075914;28;20411;-71
2022/10/08 08:44:15;;;;;;;7.40;3.60;;;17.20;99.90;;;;;;5085584;28;20431;-72
2022/10/08 08:46:45;;;;;;;6.17;4.00;;;17.20;99.90;;;;;;5066478;28;20962;-72
2022/10/08 08:49:20;;;;;;;11.40;3.40;;;17.00;99.90;;;;;;5084940;28;20562;-74
2022/10/08 08:51:46;;;;;;;9.10;3.10;;;17.10;99.90;;;;;;5083931;28;20508;-72
2022/10/08 08:54:12;;;;;;;6.87;3.10;;;17.00;99.90;;;;;;5092683;28;20467;-72
2022/10/08 08:56:38;;;;;;;8.50;3.10;;;17.00;99.90;;;;;;5092680;28;20641;-72
2022/10/08 08:59:26;;;;;;;7.83;3.30;;;17.00;99.90;;;;;;5093082;28;20165;-72
2022/10/08 09:01:57;;;;;;;6.53;3.63;;;17.00;99.90;;;;;;5093774;28;20403;-71
2022/10/08 09:04:32;;;;;;;8.37;3.40;;;17.10;99.90;;;;;;5093628;28;20912;-72
2022/10/08 09:07:00;;;;;;;6.47;3.17;;;17.20;99.90;;;;;;5093210;28;20486;-72
2022/10/08 09:09:42;;;;;;;4.83;2.93;;;17.50;99.90;;;;;;5093687;28;20392;-71
2022/10/08 09:12:18;;;;;;;7.77;3.47;;;17.60;99.90;;;;;;5093124;28;20929;-71
2022/10/08 09:14:50;;;;;;;9.17;3.63;;;17.50;99.90;;;;;;5093804;28;20423;-72
2022/10/08 09:17:18;;;;;;;6.53;3.10;;;17.50;99.90;;;;;;5094218;28;20421;-72
2022/10/08 09:19:45;;;;;;;8.13;3.00;;;17.60;99.90;;;;;;5075304;28;20441;-71
2022/10/08 09:22:17;;;;;;;5.80;3.23;;;17.60;99.90;;;;;;5093102;28;20403;-72
2022/10/08 09:24:43;;;;;;;4.83;3.47;;;17.60;99.90;;;;;;5075118;28;20427;-73
2022/10/08 09:27:13;;;;;;;5.93;3.60;;;17.60;99.90;;;;;;5092861;28;20779;-71
2022/10/08 09:29:39;;;;;;;9.43;3.40;;;17.70;99.90;;;;;;5093386;28;20249;-71
2022/10/08 09:32:06;;;;;;;6.97;3.40;;;17.70;99.90;;;;;;5075268;28;20450;-72
2022/10/08 09:34:32;;;;;;;5.53;2.60;;;17.70;99.90;;;;;;5091469;28;20251;-73
2022/10/08 09:37:00;;;;;;;6.53;3.00;;;17.80;99.90;;;;;;5093146;28;20406;-72
2022/10/08 09:39:27;;;;;;;8.30;3.27;;;18.00;99.90;;;;;;5093611;28;20778;-72
2022/10/08 09:42:13;;;;;;;6.67;2.60;;;18.00;99.90;;;;;;5093626;28;20403;-72
2022/10/08 09:44:46;;;;;;;7.03;2.60;;;18.10;99.90;;;;;;5093674;28;20436;-72
2022/10/08 09:47:14;;;;;;;10.77;2.90;;;17.80;99.90;;;;;;5074897;28;20411;-71
2022/10/08 09:49:40;;;;;;;4.70;2.83;;;17.60;99.90;;;;;;5092821;28;20407;-72
2022/10/08 09:52:19;;;;;;;8.10;2.83;;;17.70;99.90;;;;;;5074844;28;20454;-72
2022/10/08 09:55:06;;;;;;;6.67;2.83;;;18.00;99.90;;;;;;5093241;28;20245;-72
2022/10/08 09:57:32;;;;;;;6.23;3.30;;;18.00;99.90;;;;;;5091782;28;20456;-71
2022/10/08 10:00:01;;;;;;;5.10;2.63;;;18.00;99.90;;;;;;5092796;28;20396;-72
2022/10/08 10:02:31;;;;;;;5.20;2.77;;;17.70;99.90;;;;;;5093040;28;20399;-72
2022/10/08 10:04:57;;;;;;;6.27;3.03;;;17.70;99.90;;;;;;5092834;28;20424;-71
2022/10/08 10:07:34;;;;;;;5.77;3.20;;;17.80;99.90;;;;;;5092866;28;20403;-70
2022/10/08 10:10:02;;;;;;;7.53;3.00;;;17.80;99.90;;;;;;5093854;28;20788;-71
2022/10/08 10:12:35;;;;;;;9.37;2.97;;;18.00;99.90;;;;;;5092128;28;20445;-71
2022/10/08 10:15:08;;;;;;;13.27;3.70;;;18.00;99.90;;;;;;5092693;28;20916;-71
2022/10/08 10:17:43;;;;;;;8.50;3.63;;;18.10;99.90;;;;;;5093656;28;20445;-71
2022/10/08 10:20:25;;;;;;;5.40;3.50;;;18.30;99.90;;;;;;5093074;28;20383;-73
2022/10/08 10:22:56;;;;;;;11.60;5.97;;;18.40;99.90;;;;;;5093155;28;20403;-72
2022/10/08 10:25:45;;;;;;;7.03;3.60;;;18.70;99.90;;;;;;5093383;28;20411;-72
2022/10/08 10:28:35;;;;;;;5.03;2.53;;;18.80;99.90;;;;;;5093437;28;20411;-72
2022/10/08 10:31:09;;;;;;;7.00;3.30;;;18.60;99.90;;;;;;5094515;28;20488;-72
2022/10/08 10:33:43;;;;;;;7.60;3.50;;;18.70;99.90;;;;;;5096409;28;20454;-72
2022/10/08 10:36:13;;;;;;;12.07;2.93;;;18.80;99.90;;;;;;5100218;28;20473;-72
2022/10/08 10:38:46;;;;;;;5.23;2.60;;;18.60;99.90;;;;;;5103056;28;20412;-72
2022/10/08 10:41:27;;;;;;;8.83;2.40;;;18.60;99.90;;;;;;5084234;28;20411;-72
2022/10/08 10:43:59;;;;;;;7.43;3.23;;;18.70;99.90;;;;;;5101222;28;20427;-72
2022/10/08 10:46:35;;;;;;;8.30;3.80;;;18.90;99.90;;;;;;5098437;28;20757;-72
2022/10/08 10:49:01;;;;;;;7.83;3.53;;;19.00;99.90;;;;;;5098679;28;20394;-73
2022/10/08 10:51:44;;;;;;;6.33;3.30;;;19.00;99.90;;;;;;5098448;28;20443;-72
2022/10/08 10:54:35;;;;;;;6.53;3.33;;;19.30;99.90;;;;;;5097938;28;20415;-72
2022/10/08 10:57:07;;;;;;;8.37;3.03;;;19.30;99.90;;;;;;5095796;28;20983;-71
2022/10/08 11:00:12;;;;;;;7.07;2.67;;;19.30;99.90;;;;;;5098175;28;20455;-71
2022/10/08 11:03:13;;;;;;;10.53;3.40;;;19.40;99.90;;;;;;5099052;28;20387;-73
2022/10/08 11:05:43;;;;;;;9.57;3.57;;;19.60;99.70;;;;;;5082067;28;20414;-73
2022/10/08 11:08:56;;;;;;;10.37;2.83;;;19.20;99.80;;;;;;5096607;28;20898;-72
2022/10/08 11:11:30;;;;;;;7.90;3.70;;;20.00;99.00;;;;;;5051834;28;20554;-71
2022/10/08 11:14:43;;;;;;;12.60;3.50;;;21.20;96.90;;;;;;5096224;28;20788;-72
2022/10/08 11:17:28;;;;;;;6.83;3.00;;;20.60;96.70;;;;;;5096405;28;20411;-73
2022/10/08 11:19:57;;;;;;;6.90;2.40;;;20.80;97.20;;;;;;5095854;28;20541;-73
2022/10/08 11:22:42;;;;;;;7.20;3.03;;;21.30;96.10;;;;;;5095648;28;20815;-73
2022/10/08 11:25:39;;;;;;;8.10;2.70;;;22.10;95.60;;;;;;5096080;28;20409;-73
2022/10/08 11:28:26;;;;;;;3.83;2.53;;;21.60;95.40;;;;;;5094935;28;20878;-73
2022/10/08 11:31:28;;;;;;;9.77;3.03;;;21.30;95.60;;;;;;5095513;28;20721;-71
2022/10/08 11:33:54;;;;;;;8.43;2.73;;;21.80;94.10;;;;;;5119843;22;20478;-74
2022/10/08 11:36:38;;;;;;;6.00;2.33;;;22.30;92.90;;;;;;5095252;28;20403;-74
2022/10/08 11:39:24;;;;;;;12.93;3.17;;;22.90;90.80;;;;;;5096045;28;20387;-72
2022/10/08 11:41:57;;;;;;;5.00;2.30;;;22.90;91.10;;;;;;5078114;28;20399;-73
2022/10/08 11:44:23;;;;;;;5.23;2.10;;;23.30;90.50;;;;;;5093225;28;20514;-74
2022/10/08 11:46:49;;;;;;;6.30;2.37;;;23.80;88.90;;;;;;5086731;28;20952;-71
2022/10/08 11:49:14;;;;;;;6.20;2.40;;;23.70;87.50;;;;;;5096323;28;20403;-73
2022/10/08 11:51:44;;;;;;;6.37;2.70;;;23.10;86.40;;;;;;5095960;28;20675;-73
2022/10/08 11:54:12;;;;;;;6.30;2.20;;;22.80;88.30;;;;;;5095141;28;20185;-73
2022/10/08 11:56:46;;;;;;;4.63;2.57;;;23.50;88.40;;;;;;5095646;28;20800;-72
2022/10/08 11:59:33;;;;;;;6.17;2.63;;;23.80;86.50;;;;;;5092331;28;20407;-72
2022/10/08 12:02:16;;;;;;;8.77;2.50;;;23.80;84.70;;;;;;5096097;28;20864;-73
2022/10/08 12:04:42;;;;;;;6.50;2.90;;;23.20;86.10;;;;;;5073721;28;20410;-74
2022/10/08 12:07:14;;;;;;;6.60;2.93;;;22.80;88.10;;;;;;5074501;28;20583;-73
2022/10/08 12:10:04;;;;;;;5.93;2.43;;;22.80;88.90;;;;;;5056924;28;20174;-74
2022/10/08 12:12:48;;;;;;;5.43;2.30;;;23.40;86.20;;;;;;5074089;28;20812;-73
2022/10/08 12:15:22;;;;;;;6.30;2.30;;;23.10;86.50;;;;;;5074505;28;20532;-72
2022/10/08 12:17:55;;;;;;;6.13;2.23;;;23.10;87.30;;;;;;5068492;28;20457;-72
2022/10/08 12:20:31;;;;;;;4.03;2.07;;;23.80;86.20;;;;;;5094593;28;20402;-73
2022/10/08 12:23:07;;;;;;;6.40;2.20;;;24.80;81.10;;;;;;5095178;28;20384;-72
2022/10/08 12:25:57;;;;;;;5.60;2.20;;;25.60;80.10;;;;;;5094458;28;20395;-74
2022/10/08 12:28:36;;;;;;;3.20;2.17;;;26.20;76.70;;;;;;5094148;28;20986;-73
2022/10/08 12:31:25;;;;;;;3.53;1.93;;;26.80;75.60;;;;;;5095243;28;20420;-72
2022/10/08 12:34:00;;;;;;;5.43;2.50;;;25.40;75.70;;;;;;5095001;28;20449;-74
2022/10/08 12:36:39;;;;;;;5.93;2.97;;;24.40;79.00;;;;;;5095164;28;20833;-73
2022/10/08 12:39:33;;;;;;;6.77;2.60;;;23.90;80.90;;;;;;5094533;28;20411;-74
2022/10/08 12:42:13;;;;;;;4.23;2.20;;;24.50;80.00;;;;;;5095034;28;20380;-73
2022/10/08 12:44:46;;;;;;;5.50;2.73;;;24.10;80.90;;;;;;5093750;28;20415;-73
2022/10/08 12:47:26;;;;;;;8.00;2.20;;;24.10;81.00;;;;;;5095135;28;20869;-74
2022/10/08 12:49:59;;;;;;;5.47;2.50;;;24.00;81.30;;;;;;5094864;28;20444;-73
2022/10/08 12:52:25;;;;;;;3.73;1.90;;;24.80;80.30;;;;;;5094731;28;20435;-72
2022/10/08 12:54:53;;;;;;;4.73;2.40;;;25.50;77.70;;;;;;5094324;28;20419;-75
2022/10/08 12:57:33;;;;;;;5.67;2.23;;;24.50;78.50;;;;;;5074543;28;20403;-74
2022/10/08 13:00:04;;;;;;;6.07;2.33;;;24.40;79.20;;;;;;5093720;28;20454;-74
2022/10/08 13:02:40;;;;;;;5.07;2.07;;;24.30;80.20;;;;;;5094477;28;20394;-73
2022/10/08 13:05:27;;;;;;;3.07;2.10;;;24.80;78.30;;;;;;5093437;28;20422;-73